Comins, Michigan
Current Conditions -  °F | °C
As of 9:54 AM on Tuesday 21 Oct 2014 (Local Time) from KAPN Reporting Station
Clear Clear  
Wind Chill: 35°   Ceiling: Unl
Heat Index: 43°   Visibility: 10mi
Dew Point: 33°   Wind: 18mph
Humidity: 68%   Direction: 30°NNE
Pressure: 30.11"   Gusts: 26mph
Location:  44.8°N, 84.04°W
Report Text: KAPN 211354Z AUTO 03016G23KT 10SM CLR 06/01 A3011 RMK AO2 SLP203 T00610006
Loading
Personal Weather Stations






























Interactive Weather Map
Tropical Storm Tracking
New forecast layout! Learn more

10-Day Weather Forecast

Advertisements
Track Severe Weather on mobile